Memphis, TN

5:54 AM CDT on September 01, 2015 (GMT -0500)
Midtown Memphis (OEM) | | Change Station
CLOSE
Current Station
Personal Weather Station
Location: Memphis, TN
Elevation: 320 ft
Nearby Weather Stations

Elev 320 ft 35.13 °N, 89.97 °W | Updated 4 minutes ago

Mostly Cloudy
Mostly Cloudy
73.7 °F
Feels Like 73 °F
N
0.0
Wind Variable Wind from East
Gusts 11.0 mph

Today
High -- | Low -- °F
--% Chance of Precip.
Yesterday
High -- | Low -- °F
Precip. -- in
6:32 AM 7:26 PM
Waning Gibbous, 89% visible
Pressure 30.07 in
Visibility 10.0 miles
Clouds Few 2000 ft
Mostly Cloudy 25000 ft
Heat Index 73 °F
Dew Point 69 °F
Humidity 86%
Rainfall 0.00 in
Snow Depth Not available.
UV 0 out of 12
Pollen 9.40 out of 12
Air Quality Not available.
Flu Activity Not available.
METAR KMEM 010954Z 00000KT 10SM FEW020 BKN250 24/20 A3009 RMK AO2 SLP183 T02440200
Pressure 30.07 in
Visibility 10.0 miles
Clouds Few 2000 ft
Mostly Cloudy 25000 ft
Heat Index 73 °F
Dew Point 69 °F
Humidity 86%
Rainfall 0.00 in
Snow Depth Not available.
UV 0 out of 12
Pollen 9.40 out of 12
Air Quality Not available.
Flu Activity Not available.
METAR KMEM 010954Z 00000KT 10SM FEW020 BKN250 24/20 A3009 RMK AO2 SLP183 T02440200

10-Day Weather Forecast

×

Almanac

Astronomy

Sep. 01, 2015 Rise Set
Actual Time
Civil Twilight
Nautical Twilight
Astronomical Twilight
Moon
Length of Visible Light
Length of Day
Tomorrow will be .
, % of the Moon is Illuminated

Today's Extremes

State Highs State Lows

Community

WunderPhotos

Upload Photos

1,851,501 photos uploaded!

WunderBlogs® & News

Nearby

Air Quality

  Air Quality AQ Index Pollutant
Not available.

Snow Depth

Station Depth Elevation

Earthquake Activity

City Distance Mag. Time & Date
Minimum magnitude displayed is 2.5.

Coastal Water Temperatures

Place Temperature

Stations

Nearby Weather Stations

Station Location Temp. Windchill Dew Point Humidity Wind Precip. Elev Updated Type